ROMMA est une association bénévole à but non lucratif. Votre soutien est indispensable : ADHERER à ROMMA ou FAIRE un DON

Lans-en-Vercors - (38, Isère)

Vercors (990 m)   Longitude: 5° 33' 59'' E   Latitude: 45° 6' 3'' N Station partenaire n°80
 

Détail journalier du     <<     >>

Température Precipitation Humidité Pression Vent Dir Rafale Dir. rafale Ensol.
Heure (°C) (mm) (%) (hPa) (km/h) (km/h) (min)
01:00 -1.00901016032SO0
02:00 -0.6093101605SO0
03:00
04:00 -1.7093101602SO0
05:00 -2.8093101600SO0
06:00 -2.8093101605SO0
07:00 -3.4094101500SO0
08:00 -3.8093101500SO0
09:00 -2.0094101502SO0
10:00 1.4095101503SO20
11:00 6.6082101503SO50
12:00 11.606410144N16NNO60
13:00 10.7064101413N31NNO40
14:00 9.4065101416ONO32NO30
15:00 6.6072101419NO40NO30
16:00 4.3082101519NO42NNO0
17:00 2.4086101616N34NO0
18:00 1.6088101613ONO29ONO0
19:00 0.7091101611ONO26NNO0
20:00 -0.5093101711NO27NNO0
21:00 -0.509410172NO13NNO0
22:00 -0.809410172NO15NO0
23:00 -0.709410171NO8NO0
minuit -0.709410171NO6NO0

Graphique du 29-03-2020

 

Serveur OMMA